Time;durP1;ratioP1;P1;durP2;ratioP2;P2;SDS_P1;SDS_P2;PMS_P1;PMS_P2;Temp;Humidity;BMP_temperature;BMP_pressure;BME280_temperature;BME280_humidity;BME280_pressure;Samples;Min_cycle;Max_cycle;Signal;HPM_P1;HPM_P2
2021/04/12 00:01:06;;;;;;;37.22;22.23;;;;;;;;;;5013945;28;20036;-48
2021/04/12 00:03:46;;;;;;;27.55;15.63;;;;;;;;;;5013393;28;20026;-47
2021/04/12 00:06:16;;;;;;;22.35;15.18;;;;;;;;;;5013675;28;20022;-50
2021/04/12 00:08:51;;;;;;;36.45;21.70;;;;;;;;;;5013522;28;20040;-47
2021/04/12 00:11:36;;;;;;;26.02;14.93;;;;;;;;;;5013348;28;20030;-45
2021/04/12 00:14:06;;;;;;;25.20;13.88;;;;;;;;;;5013472;28;20038;-46
2021/04/12 00:16:41;;;;;;;24.00;15.18;;;;;;;;;;5013740;28;20018;-50
2021/04/12 00:19:10;;;;;;;23.20;15.15;;;;;;;;;;4995863;28;20038;-49
2021/04/12 00:21:39;;;;;;;23.60;14.45;;;;;;;;;;5013523;28;20032;-47
2021/04/12 00:24:31;;;;;;;24.75;16.73;;;;;;;;;;5013455;28;20048;-45
2021/04/12 00:27:24;;;;;;;24.42;15.30;;;;;;;;;;5009139;28;20060;-43
2021/04/12 00:29:59;;;;;;;26.48;17.05;;;;;;;;;;4914863;29;20489;-43
2021/04/12 00:32:37;;;;;;;31.45;19.83;;;;;;;;;;4918726;29;20464;-43
2021/04/12 00:35:03;;;;;;;38.70;23.30;;;;;;;;;;4918595;29;20090;-43
2021/04/12 00:37:41;;;;;;;35.28;21.15;;;;;;;;;;4918649;29;20080;-46
2021/04/12 00:40:25;;;;;;;34.63;19.83;;;;;;;;;;4918245;29;20056;-44
2021/04/12 00:43:10;;;;;;;33.90;17.52;;;;;;;;;;4918131;29;20115;-44
2021/04/12 00:45:45;;;;;;;28.42;16.10;;;;;;;;;;4918389;29;20032;-47
2021/04/12 00:48:11;;;;;;;26.63;14.88;;;;;;;;;;4918431;29;20104;-50
2021/04/12 00:50:49;;;;;;;23.38;13.55;;;;;;;;;;4918470;29;20110;-54
2021/04/12 00:53:15;;;;;;;22.25;13.43;;;;;;;;;;4918359;29;20052;-51
2021/04/12 00:55:46;;;;;;;24.88;15.20;;;;;;;;;;4918319;29;20043;-50
2021/04/12 00:58:33;;;;;;;23.13;14.50;;;;;;;;;;4918298;29;20112;-49
2021/04/12 01:01:01;;;;;;;21.83;14.10;;;;;;;;;;4918283;29;20064;-48
2021/04/12 01:03:35;;;;;;;26.30;14.82;;;;;;;;;;4918436;29;20036;-46
2021/04/12 01:06:01;;;;;;;25.75;15.48;;;;;;;;;;4938778;28;20092;-46
2021/04/12 01:08:36;;;;;;;23.08;14.40;;;;;;;;;;5016553;28;20482;-46
2021/04/12 01:11:02;;;;;;;26.10;14.70;;;;;;;;;;5016349;28;20034;-46
2021/04/12 01:13:47;;;;;;;22.83;14.65;;;;;;;;;;5016575;28;20104;-46
2021/04/12 01:16:25;;;;;;;23.73;14.63;;;;;;;;;;5016539;28;20109;-47
2021/04/12 01:18:51;;;;;;;27.00;14.85;;;;;;;;;;5016437;28;20544;-47
2021/04/12 01:21:35;;;;;;;28.20;13.55;;;;;;;;;;5016404;28;20496;-47
2021/04/12 01:24:10;;;;;;;28.23;15.23;;;;;;;;;;5016394;28;20029;-47
2021/04/12 01:26:39;;;;;;;19.83;13.57;;;;;;;;;;5016585;28;20029;-49
2021/04/12 01:29:20;;;;;;;26.25;14.50;;;;;;;;;;5016217;28;20444;-48
2021/04/12 01:32:05;;;;;;;24.98;14.30;;;;;;;;;;5016274;28;20030;-46
2021/04/12 01:34:50;;;;;;;23.48;14.25;;;;;;;;;;5016330;28;20041;-46
2021/04/12 01:37:24;;;;;;;28.20;14.30;;;;;;;;;;5016271;28;20026;-49
2021/04/12 01:39:59;;;;;;;25.02;14.50;;;;;;;;;;5015743;28;20089;-55
2021/04/12 01:42:37;;;;;;;25.27;14.40;;;;;;;;;;5015493;28;20026;-48
2021/04/12 01:45:15;;;;;;;25.08;14.23;;;;;;;;;;5015918;28;20054;-50
2021/04/12 01:47:59;;;;;;;25.58;15.27;;;;;;;;;;5016184;28;20049;-47
2021/04/12 01:50:51;;;;;;;22.20;14.73;;;;;;;;;;5016023;28;20026;-49
2021/04/12 01:53:17;;;;;;;22.67;14.63;;;;;;;;;;4936393;29;20039;-47
2021/04/12 01:55:43;;;;;;;23.13;14.90;;;;;;;;;;4936418;29;20476;-45
2021/04/12 01:58:15;;;;;;;21.90;13.05;;;;;;;;;;4936177;29;20052;-47
2021/04/12 02:00:41;;;;;;;21.48;14.52;;;;;;;;;;4936473;29;20534;-49
2021/04/12 02:03:17;;;;;;;23.30;14.13;;;;;;;;;;4936169;29;20059;-47
2021/04/12 02:05:49;;;;;;;25.10;14.73;;;;;;;;;;4936080;29;20181;-46
2021/04/12 02:08:19;;;;;;;22.25;14.48;;;;;;;;;;4936042;29;20038;-49
2021/04/12 02:10:56;;;;;;;23.27;14.65;;;;;;;;;;4935876;29;20091;-46
2021/04/12 02:13:28;;;;;;;25.02;15.25;;;;;;;;;;4936171;29;20114;-47
2021/04/12 02:15:57;;;;;;;24.92;14.60;;;;;;;;;;4935850;29;20032;-47
2021/04/12 02:18:44;;;;;;;24.48;14.95;;;;;;;;;;4935868;29;20051;-48
2021/04/12 02:21:20;;;;;;;22.85;14.85;;;;;;;;;;4935841;29;20042;-48
2021/04/12 02:23:48;;;;;;;25.33;15.32;;;;;;;;;;4935817;29;20031;-46
2021/04/12 02:26:32;;;;;;;24.40;14.65;;;;;;;;;;4935660;29;20066;-46
2021/04/12 02:29:17;;;;;;;29.02;15.90;;;;;;;;;;4935665;29;20026;-47
2021/04/12 02:31:52;;;;;;;28.08;15.70;;;;;;;;;;5015102;28;20054;-47
2021/04/12 02:34:37;;;;;;;25.10;15.90;;;;;;;;;;5015238;28;20482;-50
2021/04/12 02:37:38;;;;;;;28.60;15.70;;;;;;;;;;5014942;28;20470;-45
2021/04/12 02:40:11;;;;;;;27.08;16.10;;;;;;;;;;4935169;29;20064;-48
2021/04/12 02:42:55;;;;;;;27.55;16.50;;;;;;;;;;4935572;29;20040;-45
2021/04/12 02:45:40;;;;;;;24.75;16.95;;;;;;;;;;4935531;29;20032;-44
2021/04/12 02:48:35;;;;;;;25.50;16.33;;;;;;;;;;4935328;28;20452;-44
2021/04/12 02:51:07;;;;;;;26.05;16.08;;;;;;;;;;4878842;29;20124;-49
2021/04/12 02:53:37;;;;;;;31.35;17.48;;;;;;;;;;4878108;29;20033;-52
2021/04/12 02:56:06;;;;;;;27.50;17.33;;;;;;;;;;4878682;29;20041;-45
2021/04/12 02:58:44;;;;;;;29.05;18.60;;;;;;;;;;4878527;29;20041;-46
2021/04/12 03:01:16;;;;;;;37.65;20.13;;;;;;;;;;4878613;29;20094;-50
2021/04/12 03:03:58;;;;;;;37.75;19.23;;;;;;;;;;4878679;29;20029;-45
2021/04/12 03:06:24;;;;;;;30.10;20.52;;;;;;;;;;4878371;29;20062;-45
2021/04/12 03:08:59;;;;;;;32.88;20.20;;;;;;;;;;4878332;29;20037;-45
2021/04/12 03:11:40;;;;;;;33.97;20.60;;;;;;;;;;4878394;29;20060;-45
2021/04/12 03:14:08;;;;;;;32.97;19.73;;;;;;;;;;4916713;29;20043;-45
2021/04/12 03:16:43;;;;;;;34.38;20.98;;;;;;;;;;4953847;29;20690;-45
2021/04/12 03:19:24;;;;;;;35.53;21.80;;;;;;;;;;4953802;29;20071;-47
2021/04/12 03:22:09;;;;;;;32.97;22.27;;;;;;;;;;4953979;29;20035;-47
2021/04/12 03:24:42;;;;;;;33.70;21.27;;;;;;;;;;4953912;29;20159;-47
2021/04/12 03:27:20;;;;;;;32.75;21.05;;;;;;;;;;4975819;28;20053;-47
2021/04/12 03:29:53;;;;;;;29.98;20.50;;;;;;;;;;5014113;28;20466;-45
2021/04/12 03:32:42;;;;;;;33.33;20.58;;;;;;;;;;5014049;28;20032;-46
2021/04/12 03:35:27;;;;;;;30.33;20.42;;;;;;;;;;5014144;28;20022;-45
2021/04/12 03:38:14;;;;;;;31.77;20.52;;;;;;;;;;5013877;28;20467;-47
2021/04/12 03:40:52;;;;;;;34.85;19.65;;;;;;;;;;5013639;28;20077;-46
2021/04/12 03:43:37;;;;;;;37.90;20.27;;;;;;;;;;5013901;28;20103;-47
2021/04/12 03:46:09;;;;;;;41.47;20.17;;;;;;;;;;5013855;28;20049;-47
2021/04/12 03:48:53;;;;;;;37.78;20.95;;;;;;;;;;5013892;28;20034;-46
2021/04/12 03:51:31;;;;;;;36.83;20.90;;;;;;;;;;5013945;28;20026;-45
2021/04/12 03:54:06;;;;;;;31.73;20.23;;;;;;;;;;5013927;28;20036;-49
2021/04/12 03:56:32;;;;;;;29.60;18.75;;;;;;;;;;5013657;28;20026;-47
2021/04/12 03:59:17;;;;;;;32.35;20.20;;;;;;;;;;5014107;28;20083;-48
2021/04/12 04:01:47;;;;;;;34.08;19.75;;;;;;;;;;5013682;28;20029;-45
2021/04/12 04:04:31;;;;;;;31.15;18.88;;;;;;;;;;5013719;28;20033;-47
2021/04/12 04:07:03;;;;;;;34.28;17.48;;;;;;;;;;5013604;28;20022;-48
2021/04/12 04:09:48;;;;;;;30.83;17.20;;;;;;;;;;5013372;28;20045;-48
2021/04/12 04:12:20;;;;;;;28.02;17.05;;;;;;;;;;5013624;28;20065;-46
2021/04/12 04:14:51;;;;;;;34.22;16.60;;;;;;;;;;5013541;28;20168;-47
2021/04/12 04:17:24;;;;;;;30.38;16.63;;;;;;;;;;5013612;28;20046;-48
2021/04/12 04:20:08;;;;;;;24.98;15.18;;;;;;;;;;5013385;28;20038;-47
2021/04/12 04:22:53;;;;;;;29.60;14.85;;;;;;;;;;5013695;28;20022;-47
2021/04/12 04:25:39;;;;;;;23.60;15.48;;;;;;;;;;5013493;28;20096;-48
2021/04/12 04:28:12;;;;;;;28.52;15.38;;;;;;;;;;5000016;28;20390;-48
2021/04/12 04:30:38;;;;;;;23.67;14.80;;;;;;;;;;5013562;28;20025;-47
2021/04/12 04:33:04;;;;;;;28.75;15.02;;;;;;;;;;5013354;28;20032;-47
2021/04/12 04:35:33;;;;;;;32.85;15.20;;;;;;;;;;5013513;28;20109;-44
2021/04/12 04:38:18;;;;;;;32.55;19.25;;;;;;;;;;5013503;28;20069;-46
2021/04/12 04:40:49;;;;;;;30.35;18.63;;;;;;;;;;5012957;28;20050;-50
2021/04/12 04:43:29;;;;;;;23.63;14.55;;;;;;;;;;5013359;28;20030;-47
2021/04/12 04:45:58;;;;;;;27.92;13.48;;;;;;;;;;5013278;28;20025;-46
2021/04/12 04:48:43;;;;;;;22.77;12.50;;;;;;;;;;5013372;28;20113;-45
2021/04/12 04:51:21;;;;;;;25.38;14.00;;;;;;;;;;5013170;28;20389;-44
2021/04/12 04:54:02;;;;;;;25.85;12.98;;;;;;;;;;5013343;28;20041;-47
2021/04/12 04:56:40;;;;;;;25.80;12.95;;;;;;;;;;5013096;28;20018;-48
2021/04/12 04:59:13;;;;;;;27.05;14.45;;;;;;;;;;5012970;28;20048;-47
2021/04/12 05:01:45;;;;;;;23.88;13.80;;;;;;;;;;5013241;28;20496;-47
2021/04/12 05:04:23;;;;;;;26.38;15.75;;;;;;;;;;5013105;28;20034;-47
2021/04/12 05:06:56;;;;;;;28.75;14.57;;;;;;;;;;5013289;28;20109;-45
2021/04/12 05:09:30;;;;;;;25.38;14.40;;;;;;;;;;5013011;28;20034;-47
2021/04/12 05:12:28;;;;;;;35.97;15.40;;;;;;;;;;5013157;28;20049;-57
2021/04/12 05:15:20;;;;;;;30.58;15.10;;;;;;;;;;4933510;29;20626;-47
2021/04/12 05:17:46;;;;;;;25.85;15.20;;;;;;;;;;4933536;28;20415;-48
2021/04/12 05:20:36;;;;;;;31.75;14.25;;;;;;;;;;4936970;29;20047;-50
2021/04/12 05:23:05;;;;;;;31.77;15.05;;;;;;;;;;4880345;29;20427;-47
2021/04/12 05:25:34;;;;;;;26.55;13.95;;;;;;;;;;4880174;29;20531;-48
2021/04/12 05:28:05;;;;;;;22.67;13.18;;;;;;;;;;4880277;29;20048;-47
2021/04/12 05:30:50;;;;;;;22.17;12.23;;;;;;;;;;4880177;29;20483;-46
2021/04/12 05:33:23;;;;;;;21.92;11.68;;;;;;;;;;4880013;29;20044;-48
2021/04/12 05:36:08;;;;;;;25.95;13.07;;;;;;;;;;4880356;29;20472;-47
2021/04/12 05:38:54;;;;;;;23.13;12.20;;;;;;;;;;4880194;29;20069;-52
2021/04/12 05:41:29;;;;;;;23.80;12.85;;;;;;;;;;4861115;29;20132;-49
2021/04/12 05:44:25;;;;;;;22.38;12.57;;;;;;;;;;4861327;29;20041;-47
2021/04/12 05:47:06;;;;;;;19.50;12.40;;;;;;;;;;4861447;29;20478;-50
2021/04/12 05:49:38;;;;;;;25.48;13.40;;;;;;;;;;4867528;29;20030;-49
2021/04/12 05:52:10;;;;;;;20.92;11.98;;;;;;;;;;4917324;29;20044;-47
2021/04/12 05:54:36;;;;;;;23.10;12.13;;;;;;;;;;4917380;29;20036;-45
2021/04/12 05:57:17;;;;;;;18.73;11.05;;;;;;;;;;4917221;29;20455;-48
2021/04/12 05:59:58;;;;;;;16.23;11.50;;;;;;;;;;4931591;29;20388;-47
2021/04/12 06:02:24;;;;;;;30.65;16.13;;;;;;;;;;4955487;29;20024;-46
2021/04/12 06:05:01;;;;;;;22.13;13.57;;;;;;;;;;4939104;29;20039;-46
2021/04/12 06:07:30;;;;;;;25.17;13.35;;;;;;;;;;4955304;29;20067;-48
2021/04/12 06:10:08;;;;;;;29.25;14.52;;;;;;;;;;4955435;28;20042;-47
2021/04/12 06:12:50;;;;;;;27.92;14.40;;;;;;;;;;4955229;29;20130;-46
2021/04/12 06:15:28;;;;;;;24.00;13.65;;;;;;;;;;4955185;29;20510;-48
2021/04/12 06:18:01;;;;;;;25.55;13.82;;;;;;;;;;4972203;28;20033;-49
2021/04/12 06:20:30;;;;;;;23.33;12.77;;;;;;;;;;5015504;28;20057;-46
2021/04/12 06:22:59;;;;;;;31.67;19.77;;;;;;;;;;5015130;28;20025;-45
2021/04/12 06:25:25;;;;;;;30.48;16.30;;;;;;;;;;5015237;28;20717;-46
2021/04/12 06:28:19;;;;;;;26.00;15.77;;;;;;;;;;5014097;28;20018;-48
2021/04/12 06:30:53;;;;;;;36.72;21.35;;;;;;;;;;5015329;28;20030;-48
2021/04/12 06:33:37;;;;;;;32.80;20.25;;;;;;;;;;5015011;28;20079;-48
2021/04/12 06:36:18;;;;;;;29.13;17.75;;;;;;;;;;5015086;28;20026;-47
2021/04/12 06:38:47;;;;;;;30.67;17.38;;;;;;;;;;5015132;28;20038;-50
2021/04/12 06:41:17;;;;;;;20.17;12.52;;;;;;;;;;5014516;28;20046;-47
2021/04/12 06:43:52;;;;;;;22.73;14.57;;;;;;;;;;5014902;28;20037;-47
2021/04/12 06:46:18;;;;;;;22.67;13.75;;;;;;;;;;5014854;28;20073;-48
2021/04/12 06:48:46;;;;;;;21.08;12.85;;;;;;;;;;5014809;28;20045;-47
2021/04/12 06:51:15;;;;;;;23.98;13.13;;;;;;;;;;5014620;28;20022;-48
2021/04/12 06:53:56;;;;;;;28.10;14.20;;;;;;;;;;5014784;28;20112;-48
2021/04/12 06:56:41;;;;;;;22.90;13.70;;;;;;;;;;5014525;28;20022;-49
2021/04/12 06:59:22;;;;;;;19.50;11.57;;;;;;;;;;5014563;28;20493;-47
2021/04/12 07:02:00;;;;;;;21.58;12.40;;;;;;;;;;5014705;28;20017;-47
2021/04/12 07:04:35;;;;;;;19.80;10.38;;;;;;;;;;5014494;28;20026;-47
2021/04/12 07:07:20;;;;;;;16.73;9.60;;;;;;;;;;5014468;28;20113;-48
2021/04/12 07:09:52;;;;;;;19.63;9.60;;;;;;;;;;5014381;28;20042;-47
2021/04/12 07:12:36;;;;;;;16.00;9.38;;;;;;;;;;5014376;28;20041;-47
2021/04/12 07:15:13;;;;;;;16.55;8.93;;;;;;;;;;5014353;28;20025;-46
2021/04/12 07:17:48;;;;;;;15.63;7.55;;;;;;;;;;5014376;28;20021;-48
2021/04/12 07:20:20;;;;;;;15.18;7.03;;;;;;;;;;5014151;28;20046;-48
2021/04/12 07:22:52;;;;;;;15.63;7.57;;;;;;;;;;5013999;28;20027;-48
2021/04/12 07:25:41;;;;;;;12.68;7.40;;;;;;;;;;5013990;28;20065;-48
2021/04/12 07:28:22;;;;;;;19.27;8.55;;;;;;;;;;5013922;28;20478;-47
2021/04/12 07:31:08;;;;;;;16.10;9.05;;;;;;;;;;5013997;28;20025;-48
2021/04/12 07:33:37;;;;;;;9.88;6.00;;;;;;;;;;5002905;28;20038;-47
2021/04/12 07:36:23;;;;;;;13.45;5.93;;;;;;;;;;5013727;28;20108;-48
2021/04/12 07:38:52;;;;;;;14.05;5.80;;;;;;;;;;5013708;28;20025;-49
2021/04/12 07:41:36;;;;;;;12.93;5.88;;;;;;;;;;5013485;28;20054;-51
2021/04/12 07:44:21;;;;;;;19.13;6.85;;;;;;;;;;5013841;28;20026;-53
2021/04/12 07:46:50;;;;;;;18.52;8.57;;;;;;;;;;5013511;28;20059;-48
2021/04/12 07:49:34;;;;;;;16.17;6.82;;;;;;;;;;5013624;28;20492;-49
2021/04/12 07:52:06;;;;;;;21.33;7.00;;;;;;;;;;5013710;28;20052;-47
2021/04/12 07:54:48;;;;;;;15.60;7.03;;;;;;;;;;4995905;28;20496;-48
2021/04/12 07:57:35;;;;;;;12.52;6.72;;;;;;;;;;5013438;28;20107;-46
2021/04/12 08:00:20;;;;;;;12.93;6.45;;;;;;;;;;5013605;28;20406;-46
2021/04/12 08:02:46;;;;;;;15.18;7.22;;;;;;;;;;5013558;28;20030;-46
2021/04/12 08:05:20;;;;;;;14.55;6.90;;;;;;;;;;5013209;28;20033;-46
2021/04/12 08:08:04;;;;;;;12.10;7.00;;;;;;;;;;5013480;28;20493;-47
2021/04/12 08:10:49;;;;;;;28.20;14.68;;;;;;;;;;5012139;28;20045;-48
2021/04/12 08:13:33;;;;;;;12.88;6.15;;;;;;;;;;5012406;28;20374;-47
2021/04/12 08:15:59;;;;;;;20.65;6.07;;;;;;;;;;5012714;28;20030;-49
2021/04/12 08:18:34;;;;;;;12.48;5.90;;;;;;;;;;5013475;28;20141;-50
2021/04/12 08:21:00;;;;;;;24.20;10.35;;;;;;;;;;5012518;28;20037;-48
2021/04/12 08:23:46;;;;;;;14.70;6.55;;;;;;;;;;5013428;28;20461;-52
2021/04/12 08:26:24;;;;;;;12.85;4.72;;;;;;;;;;5013288;28;20030;-49
2021/04/12 08:29:03;;;;;;;17.55;6.43;;;;;;;;;;5013190;28;20374;-50
2021/04/12 08:31:48;;;;;;;19.27;8.15;;;;;;;;;;5014372;28;20417;-49
2021/04/12 08:34:23;;;;;;;13.32;5.55;;;;;;;;;;5013526;28;20381;-49
2021/04/12 08:36:54;;;;;;;12.35;5.57;;;;;;;;;;5013547;28;20050;-50
2021/04/12 08:39:32;;;;;;;13.60;6.13;;;;;;;;;;5013070;28;20042;-49
2021/04/12 08:42:15;;;;;;;16.25;6.20;;;;;;;;;;5013141;28;20026;-51
2021/04/12 08:45:01;;;;;;;10.45;4.25;;;;;;;;;;5013146;28;20058;-50
2021/04/12 08:47:45;;;;;;;10.73;5.28;;;;;;;;;;5013190;28;20109;-49
2021/04/12 08:50:14;;;;;;;9.63;3.35;;;;;;;;;;5013352;28;20168;-50
2021/04/12 08:52:43;;;;;;;13.60;4.20;;;;;;;;;;5015908;28;20029;-48
2021/04/12 08:55:24;;;;;;;15.82;6.05;;;;;;;;;;5016880;28;20160;-47
2021/04/12 08:57:57;;;;;;;11.48;5.32;;;;;;;;;;5016741;28;20032;-48
2021/04/12 09:00:23;;;;;;;8.88;3.67;;;;;;;;;;5016906;28;20159;-51
2021/04/12 09:02:52;;;;;;;16.02;5.15;;;;;;;;;;5016912;28;20470;-48
2021/04/12 09:05:30;;;;;;;11.98;5.00;;;;;;;;;;5016716;28;20061;-48
2021/04/12 09:08:05;;;;;;;13.30;4.80;;;;;;;;;;5016626;28;20033;-47
2021/04/12 09:10:35;;;;;;;9.45;3.80;;;;;;;;;;5016493;28;20470;-50
2021/04/12 09:13:19;;;;;;;9.80;4.10;;;;;;;;;;5016543;28;20487;-48
2021/04/12 09:15:55;;;;;;;12.65;4.60;;;;;;;;;;5016437;28;20026;-49
2021/04/12 09:18:39;;;;;;;11.23;5.20;;;;;;;;;;5016572;28;20026;-49
2021/04/12 09:21:24;;;;;;;13.52;5.47;;;;;;;;;;5016353;28;20125;-49
2021/04/12 09:24:09;;;;;;;14.73;5.93;;;;;;;;;;5016430;28;20026;-49
2021/04/12 09:26:44;;;;;;;9.73;3.97;;;;;;;;;;5016290;28;20022;-49
2021/04/12 09:29:28;;;;;;;8.35;3.08;;;;;;;;;;5016284;28;20037;-49
2021/04/12 09:32:18;;;;;;;11.23;3.72;;;;;;;;;;4998603;28;20022;-50
2021/04/12 09:34:44;;;;;;;11.70;4.15;;;;;;;;;;4955805;28;20095;-49
2021/04/12 09:37:10;;;;;;;9.30;3.42;;;;;;;;;;4955623;29;20074;-49
2021/04/12 09:39:39;;;;;;;12.18;4.90;;;;;;;;;;4955382;29;20504;-47
2021/04/12 09:42:05;;;;;;;14.90;4.32;;;;;;;;;;4955866;29;20110;-48
2021/04/12 09:44:49;;;;;;;9.60;3.45;;;;;;;;;;4955677;29;20036;-50
2021/04/12 09:47:30;;;;;;;9.27;3.60;;;;;;;;;;4955632;29;20414;-49
2021/04/12 09:49:56;;;;;;;13.88;4.05;;;;;;;;;;4955685;29;20491;-49
2021/04/12 09:52:25;;;;;;;11.20;3.42;;;;;;;;;;4955433;29;20390;-49
2021/04/12 09:54:54;;;;;;;8.75;3.22;;;;;;;;;;4955479;29;20070;-50
2021/04/12 09:57:38;;;;;;;14.05;3.78;;;;;;;;;;4955195;29;20038;-48
2021/04/12 10:00:04;;;;;;;16.48;5.85;;;;;;;;;;4955216;29;20073;-49
2021/04/12 10:02:36;;;;;;;10.73;3.75;;;;;;;;;;4955020;28;20090;-50
2021/04/12 10:05:18;;;;;;;11.38;5.25;;;;;;;;;;4955308;28;20039;-49
2021/04/12 10:08:03;;;;;;;12.60;5.20;;;;;;;;;;4955357;29;20019;-50
2021/04/12 10:10:37;;;;;;;14.48;5.75;;;;;;;;;;4955017;29;20032;-49
2021/04/12 10:13:03;;;;;;;9.38;4.53;;;;;;;;;;5015566;28;20060;-48
2021/04/12 10:15:30;;;;;;;11.70;5.28;;;;;;;;;;5015338;28;20482;-52
2021/04/12 10:18:08;;;;;;;11.85;4.38;;;;;;;;;;5015313;28;20026;-48
2021/04/12 10:20:54;;;;;;;22.42;8.27;;;;;;;;;;5015314;28;20034;-51
2021/04/12 10:23:22;;;;;;;22.15;11.18;;;;;;;;;;5014160;28;20436;-49
2021/04/12 10:25:48;;;;;;;13.32;3.88;;;;;;;;;;5015287;28;20048;-49
2021/04/12 10:28:31;;;;;;;16.10;4.68;;;;;;;;;;5014953;28;20020;-50
2021/04/12 10:31:27;;;;;;;12.45;4.65;;;;;;;;;;5015127;28;20029;-50
2021/04/12 10:33:59;;;;;;;16.25;6.18;;;;;;;;;;5002203;28;20029;-50
2021/04/12 10:36:34;;;;;;;12.68;4.22;;;;;;;;;;5015161;28;20080;-49
2021/04/12 10:39:11;;;;;;;14.13;4.82;;;;;;;;;;5014686;28;20049;-50
2021/04/12 10:41:41;;;;;;;31.83;15.68;;;;;;;;;;5014906;28;20045;-49
2021/04/12 10:44:13;;;;;;;10.38;3.30;;;;;;;;;;5014826;28;20036;-49
2021/04/12 10:46:54;;;;;;;21.40;11.10;;;;;;;;;;5014933;28;20461;-50
2021/04/12 10:49:39;;;;;;;12.75;4.60;;;;;;;;;;5014841;28;20076;-50
2021/04/12 10:52:08;;;;;;;27.15;12.23;;;;;;;;;;5014825;28;20030;-49
2021/04/12 10:55:00;;;;;;;19.27;8.73;;;;;;;;;;5014714;28;20561;-49
2021/04/12 10:57:26;;;;;;;11.55;4.28;;;;;;;;;;5014602;28;20022;-50
2021/04/12 11:00:10;;;;;;;11.07;3.63;;;;;;;;;;5014470;28;20034;-48
2021/04/12 11:02:45;;;;;;;10.20;4.35;;;;;;;;;;5014551;28;20026;-51
2021/04/12 11:05:17;;;;;;;13.07;3.70;;;;;;;;;;5014433;28;20105;-50
2021/04/12 11:07:56;;;;;;;9.90;3.75;;;;;;;;;;5014874;28;20026;-50
2021/04/12 11:10:42;;;;;;;9.45;3.72;;;;;;;;;;5014592;28;20026;-50
2021/04/12 11:13:14;;;;;;;16.50;3.60;;;;;;;;;;5014237;28;20044;-49
2021/04/12 11:15:47;;;;;;;9.38;2.75;;;;;;;;;;5013648;28;20069;-49
2021/04/12 11:18:28;;;;;;;9.90;4.78;;;;;;;;;;5014350;28;20029;-49
2021/04/12 11:21:03;;;;;;;11.43;3.65;;;;;;;;;;5014451;28;20022;-49
2021/04/12 11:23:32;;;;;;;13.60;5.10;;;;;;;;;;5014316;28;20111;-50
2021/04/12 11:26:22;;;;;;;20.42;9.18;;;;;;;;;;5014231;28;20061;-49
2021/04/12 11:28:52;;;;;;;25.58;8.38;;;;;;;;;;4953516;29;20376;-49
2021/04/12 11:31:33;;;;;;;23.60;9.57;;;;;;;;;;4937990;29;20031;-50
2021/04/12 11:34:18;;;;;;;10.73;4.80;;;;;;;;;;4953529;29;20063;-50
2021/04/12 11:37:02;;;;;;;12.35;3.05;;;;;;;;;;4953594;29;20071;-49
2021/04/12 11:39:33;;;;;;;11.95;4.47;;;;;;;;;;4953208;29;20074;-50
2021/04/12 11:42:13;;;;;;;13.35;4.10;;;;;;;;;;4953545;29;20255;-50
2021/04/12 11:44:51;;;;;;;19.85;5.35;;;;;;;;;;4953677;29;20031;-48
2021/04/12 11:47:29;;;;;;;16.80;4.38;;;;;;;;;;4953366;29;20059;-50
2021/04/12 11:50:05;;;;;;;13.23;4.30;;;;;;;;;;4953542;29;20034;-51
2021/04/12 11:52:37;;;;;;;16.92;4.35;;;;;;;;;;4953530;29;20044;-49
2021/04/12 11:55:03;;;;;;;14.50;3.80;;;;;;;;;;4953626;29;20110;-50
2021/04/12 11:57:48;;;;;;;47.22;23.05;;;;;;;;;;4953423;29;20027;-50
2021/04/12 12:00:16;;;;;;;8.85;3.35;;;;;;;;;;4953416;29;20055;-49
2021/04/12 12:02:54;;;;;;;14.90;4.95;;;;;;;;;;4953230;29;20112;-49
2021/04/12 12:05:31;;;;;;;26.45;9.93;;;;;;;;;;4970831;28;20520;-49
2021/04/12 12:08:08;;;;;;;14.63;5.35;;;;;;;;;;5013860;28;20149;-48
2021/04/12 12:10:34;;;;;;;15.20;3.60;;;;;;;;;;5013495;28;20061;-48
2021/04/12 12:13:00;;;;;;;17.90;4.07;;;;;;;;;;5013825;28;20029;-48
2021/04/12 12:15:27;;;;;;;12.25;2.85;;;;;;;;;;5013592;28;20473;-47
2021/04/12 12:18:05;;;;;;;14.05;3.42;;;;;;;;;;5013726;28;20029;-47
2021/04/12 12:20:36;;;;;;;14.35;3.25;;;;;;;;;;5013407;28;20422;-47
2021/04/12 12:23:14;;;;;;;16.70;7.47;;;;;;;;;;5013533;28;20110;-48
2021/04/12 12:25:47;;;;;;;16.95;6.47;;;;;;;;;;5014758;28;20547;-47
2021/04/12 12:28:14;;;;;;;17.85;5.35;;;;;;;;;;5017399;28;20030;-49
2021/04/12 12:30:49;;;;;;;10.77;3.65;;;;;;;;;;5017369;28;20029;-49
2021/04/12 12:33:18;;;;;;;11.48;5.68;;;;;;;;;;5017308;28;20032;-49
2021/04/12 12:35:50;;;;;;;11.77;3.20;;;;;;;;;;5017522;28;20378;-48
2021/04/12 12:38:19;;;;;;;13.38;3.83;;;;;;;;;;5017436;28;20033;-49
2021/04/12 12:40:53;;;;;;;28.10;7.75;;;;;;;;;;5016949;28;20640;-48
2021/04/12 12:43:24;;;;;;;10.25;3.10;;;;;;;;;;5017134;28;20022;-49
2021/04/12 12:45:51;;;;;;;10.85;3.53;;;;;;;;;;5017208;28;20101;-49
2021/04/12 12:48:25;;;;;;;11.40;3.85;;;;;;;;;;5016955;28;20068;-49
2021/04/12 12:51:12;;;;;;;17.20;4.25;;;;;;;;;;5017203;28;20446;-50
2021/04/12 12:53:41;;;;;;;10.13;3.55;;;;;;;;;;5017099;28;20556;-50
2021/04/12 12:56:07;;;;;;;15.40;3.72;;;;;;;;;;5016791;28;20037;-50
2021/04/12 12:58:35;;;;;;;11.38;4.47;;;;;;;;;;5016068;28;20022;-49
2021/04/12 13:01:03;;;;;;;8.27;3.45;;;;;;;;;;5016990;28;20522;-48
2021/04/12 13:03:29;;;;;;;16.75;5.10;;;;;;;;;;5016437;28;20036;-50
2021/04/12 13:05:56;;;;;;;16.33;7.72;;;;;;;;;;5016649;28;20050;-49
2021/04/12 13:08:23;;;;;;;11.63;3.38;;;;;;;;;;5016563;28;20026;-49
2021/04/12 13:10:53;;;;;;;11.38;3.22;;;;;;;;;;5016291;28;20034;-51
2021/04/12 13:13:40;;;;;;;8.98;3.42;;;;;;;;;;5014368;28;20033;-49
2021/04/12 13:16:33;;;;;;;22.98;6.40;;;;;;;;;;4990659;28;20525;-49
2021/04/12 13:19:00;;;;;;;13.63;3.47;;;;;;;;;;4985931;28;20058;-48
2021/04/12 13:21:28;;;;;;;16.88;3.53;;;;;;;;;;4990106;28;20551;-50
2021/04/12 13:24:08;;;;;;;10.80;3.78;;;;;;;;;;4989604;28;20763;-49
2021/04/12 13:26:39;;;;;;;14.85;4.20;;;;;;;;;;4989347;28;20030;-48
2021/04/12 13:29:17;;;;;;;27.48;9.07;;;;;;;;;;4988938;28;20890;-47
2021/04/12 13:31:49;;;;;;;23.85;10.57;;;;;;;;;;4989575;28;20030;-46
2021/04/12 13:34:20;;;;;;;14.75;5.30;;;;;;;;;;4990216;28;20125;-47
2021/04/12 13:36:52;;;;;;;15.77;3.20;;;;;;;;;;4989358;28;20488;-48
2021/04/12 13:39:22;;;;;;;18.15;3.42;;;;;;;;;;4989410;28;20628;-47
2021/04/12 13:41:48;;;;;;;13.25;3.53;;;;;;;;;;4989272;28;20568;-46
2021/04/12 13:44:19;;;;;;;13.82;4.15;;;;;;;;;;4989352;28;20030;-46
2021/04/12 13:47:03;;;;;;;22.13;5.43;;;;;;;;;;4989723;28;20129;-48
2021/04/12 13:49:36;;;;;;;13.77;3.85;;;;;;;;;;4989469;28;20026;-47
2021/04/12 13:52:05;;;;;;;16.52;4.63;;;;;;;;;;4988965;28;20030;-49
2021/04/12 13:54:38;;;;;;;28.65;11.02;;;;;;;;;;4989544;28;20022;-48
2021/04/12 13:57:08;;;;;;;22.95;3.80;;;;;;;;;;4974633;28;20042;-46
2021/04/12 13:59:38;;;;;;;39.58;28.23;;;;;;;;;;4988775;28;20060;-48
2021/04/12 14:02:18;;;;;;;21.40;8.25;;;;;;;;;;4988878;28;20033;-48
2021/04/12 14:04:47;;;;;;;32.75;15.27;;;;;;;;;;4994318;28;20064;-49
2021/04/12 14:07:16;;;;;;;12.50;4.55;;;;;;;;;;5014143;28;20026;-49
2021/04/12 14:09:44;;;;;;;16.33;4.32;;;;;;;;;;5011519;28;20026;-48
2021/04/12 14:12:23;;;;;;;18.00;4.53;;;;;;;;;;4996278;28;20049;-50
2021/04/12 14:14:53;;;;;;;18.20;3.87;;;;;;;;;;5012422;28;20148;-48
2021/04/12 14:17:21;;;;;;;16.45;3.90;;;;;;;;;;5013843;28;20034;-48
2021/04/12 14:19:51;;;;;;;15.82;3.95;;;;;;;;;;5013670;28;20041;-49
2021/04/12 14:22:19;;;;;;;15.60;4.00;;;;;;;;;;5013719;28;20038;-48
2021/04/12 14:24:54;;;;;;;17.95;4.68;;;;;;;;;;5013500;28;20038;-49
2021/04/12 14:27:23;;;;;;;18.77;5.63;;;;;;;;;;5013627;28;20037;-49
2021/04/12 14:29:52;;;;;;;16.73;5.05;;;;;;;;;;5013865;28;20033;-48
2021/04/12 14:32:20;;;;;;;23.50;9.00;;;;;;;;;;5014975;28;20034;-51
2021/04/12 14:34:51;;;;;;;19.77;8.50;;;;;;;;;;5014997;28;20030;-47
2021/04/12 14:37:26;;;;;;;42.88;24.02;;;;;;;;;;5014828;28;20470;-48
2021/04/12 14:39:54;;;;;;;13.50;4.65;;;;;;;;;;5014504;28;20414;-49
2021/04/12 14:42:22;;;;;;;14.43;4.50;;;;;;;;;;5014608;28;20021;-52
2021/04/12 14:44:51;;;;;;;25.58;7.47;;;;;;;;;;4997003;28;20026;-51
2021/04/12 14:47:28;;;;;;;13.35;3.75;;;;;;;;;;5014681;28;20470;-51
2021/04/12 14:50:07;;;;;;;18.23;4.43;;;;;;;;;;5013704;28;20034;-51
2021/04/12 14:52:41;;;;;;;17.85;3.60;;;;;;;;;;5014617;28;20033;-52
2021/04/12 14:55:14;;;;;;;14.98;4.30;;;;;;;;;;5014933;28;20030;-52
2021/04/12 14:57:42;;;;;;;10.85;3.30;;;;;;;;;;5014624;28;20400;-52
2021/04/12 15:00:13;;;;;;;16.88;4.00;;;;;;;;;;5014499;28;20034;-50
2021/04/12 15:02:41;;;;;;;;;;;;;;;;;;5014922;28;20030;-49
2021/04/12 15:05:09;;;;;;;15.27;4.40;;;;;;;;;;5014525;28;19906;-50
2021/04/12 15:07:43;;;;;;;14.48;4.18;;;;;;;;;;5014583;28;20022;-51
2021/04/12 15:10:28;;;;;;;15.90;8.32;;;;;;;;;;5131945;27;20118;-52
2021/04/12 15:12:56;;;;;;;13.55;4.63;;;;;;;;;;5131796;28;20042;-51